createdAt,value
2016-10-04T00:00:23.403Z,0
2016-10-04T00:01:23.397Z,0
2016-10-04T00:02:23.371Z,0
2016-10-04T00:03:23.347Z,0
2016-10-04T00:04:23.027Z,0
2016-10-04T00:05:23.318Z,0
2016-10-04T00:06:23.301Z,0
2016-10-04T00:07:23.281Z,0
2016-10-04T00:08:22.961Z,0
2016-10-04T00:09:23.245Z,0
2016-10-04T00:10:23.225Z,0
2016-10-04T00:11:23.217Z,0
2016-10-04T00:12:22.896Z,0
2016-10-04T00:13:23.175Z,0
2016-10-04T00:14:23.152Z,0
2016-10-04T00:15:22.843Z,0
2016-10-04T00:16:23.120Z,0
2016-10-04T00:17:22.798Z,0
2016-10-04T00:18:23.087Z,0
2016-10-04T00:19:23.064Z,0
2016-10-04T00:20:23.055Z,0
2016-10-04T00:21:22.734Z,0
2016-10-04T00:22:23.012Z,0
2016-10-04T00:23:22.696Z,0
2016-10-04T00:24:22.977Z,0
2016-10-04T00:25:22.657Z,0
2016-10-04T00:26:22.959Z,0
2016-10-04T00:27:22.926Z,0
2016-10-04T00:28:22.607Z,0
2016-10-04T00:29:22.887Z,0
2016-10-04T00:30:22.878Z,0
2016-10-04T00:31:22.555Z,0
2016-10-04T00:32:22.833Z,0
2016-10-04T00:33:22.535Z,0
2016-10-04T00:34:22.801Z,0
2016-10-04T00:35:22.479Z,0
2016-10-04T00:36:22.791Z,0
2016-10-04T00:37:22.659Z,0
2016-10-04T00:38:22.730Z,0
2016-10-04T00:39:22.733Z,0
2016-10-04T00:40:22.700Z,0
2016-10-04T00:41:22.673Z,0
2016-10-04T00:42:22.688Z,0
2016-10-04T00:43:22.643Z,0
2016-10-04T00:44:22.631Z,0
2016-10-04T00:45:22.607Z,0
2016-10-04T00:46:22.596Z,0
2016-10-04T00:47:22.284Z,0
2016-10-04T00:48:22.554Z,0
2016-10-04T00:49:22.241Z,0
2016-10-04T00:50:22.528Z,0
2016-10-04T00:51:22.507Z,0
2016-10-04T00:52:22.495Z,0
2016-10-04T00:53:22.174Z,0
2016-10-04T00:54:22.452Z,0
2016-10-04T00:55:22.435Z,0
2016-10-04T00:56:22.424Z,0
2016-10-04T00:57:22.399Z,0
2016-10-04T00:58:22.086Z,0
2016-10-04T00:59:22.364Z,0
2016-10-04T01:00:22.354Z,0
2016-10-04T01:01:22.351Z,0
2016-10-04T01:02:22.315Z,0
2016-10-04T01:03:22.008Z,0
2016-10-04T01:04:22.301Z,0
2016-10-04T01:05:22.271Z,0
2016-10-04T01:06:22.146Z,0
2016-10-04T01:07:22.229Z,0
2016-10-04T01:08:21.910Z,0
2016-10-04T01:09:22.200Z,0
2016-10-04T01:10:22.171Z,0
2016-10-04T01:11:22.155Z,0
2016-10-04T01:12:21.850Z,0
2016-10-04T01:13:22.119Z,0
2016-10-04T01:14:21.500Z,0
2016-10-04T01:15:22.109Z,0
2016-10-04T01:16:21.771Z,0
2016-10-04T01:17:22.060Z,0
2016-10-04T01:18:21.751Z,0
2016-10-04T01:19:21.722Z,0
2016-10-04T01:20:22.021Z,0
2016-10-04T01:21:21.987Z,0
2016-10-04T01:22:21.972Z,0
2016-10-04T01:23:21.953Z,0
2016-10-04T01:24:21.940Z,0
2016-10-04T01:25:21.916Z,0
2016-10-04T01:26:21.603Z,0
2016-10-04T01:27:21.884Z,0
2016-10-04T01:28:21.863Z,0
2016-10-04T01:29:21.844Z,0
2016-10-04T01:30:21.829Z,0
2016-10-04T01:31:21.199Z,0
2016-10-04T01:32:21.800Z,0
2016-10-04T01:33:21.774Z,0
2016-10-04T01:34:21.752Z,0
2016-10-04T01:35:21.747Z,0
2016-10-04T01:36:21.439Z,0
2016-10-04T01:37:21.708Z,0
2016-10-04T01:38:21.692Z,0
2016-10-04T01:39:21.375Z,0
2016-10-04T01:40:21.652Z,0
2016-10-04T01:41:21.632Z,0
2016-10-04T01:42:21.622Z,0
2016-10-04T01:43:21.602Z,0
2016-10-04T01:44:21.599Z,0
2016-10-04T01:45:21.271Z,0
2016-10-04T01:46:21.551Z,0
2016-10-04T01:47:21.236Z,0
2016-10-04T01:48:21.208Z,0
2016-10-04T01:49:21.195Z,0
2016-10-04T01:50:21.480Z,0
2016-10-04T01:51:21.471Z,0
2016-10-04T01:52:21.450Z,0
2016-10-04T01:53:21.431Z,0
2016-10-04T01:54:20.805Z,0
2016-10-04T01:55:21.393Z,0
2016-10-04T01:56:21.376Z,0
2016-10-04T01:57:21.359Z,0
2016-10-04T01:58:21.337Z,0
2016-10-04T01:59:21.335Z,0
2016-10-04T02:00:20.999Z,0
2016-10-04T02:01:20.981Z,0
2016-10-04T02:02:20.967Z,0
2016-10-04T02:03:20.951Z,0
2016-10-04T02:04:20.929Z,0
2016-10-04T02:05:20.919Z,0
2016-10-04T02:06:21.195Z,0
2016-10-04T02:07:21.179Z,0
2016-10-04T02:08:21.175Z,0
2016-10-04T02:09:21.145Z,0
2016-10-04T02:10:21.134Z,0
2016-10-04T02:11:21.120Z,0
2016-10-04T02:12:21.108Z,0
2016-10-04T02:13:21.085Z,0
2016-10-04T02:14:21.055Z,0
2016-10-04T02:15:20.735Z,0
2016-10-04T02:16:21.025Z,0
2016-10-04T02:17:21.008Z,0
2016-10-04T02:18:20.986Z,0
2016-10-04T02:19:20.971Z,0
2016-10-04T02:20:20.653Z,0
2016-10-04T02:21:20.624Z,0
2016-10-04T02:22:20.920Z,0
2016-10-04T02:23:20.603Z,0
2016-10-04T02:24:20.895Z,0
2016-10-04T02:25:20.867Z,0
2016-10-04T02:26:20.846Z,0
2016-10-04T02:27:20.833Z,0
2016-10-04T02:28:20.816Z,0
2016-10-04T02:29:20.499Z,0
2016-10-04T02:30:20.783Z,0
2016-10-04T02:31:20.762Z,0
2016-10-04T02:32:20.748Z,0
2016-10-04T02:33:20.727Z,0
2016-10-04T02:34:20.409Z,0
2016-10-04T02:35:20.708Z,0
2016-10-04T02:36:20.671Z,0
2016-10-04T02:37:20.667Z,0
2016-10-04T02:38:20.642Z,0
2016-10-04T02:39:20.021Z,0
2016-10-04T02:40:20.296Z,0
2016-10-04T02:41:20.292Z,0
2016-10-04T02:42:20.269Z,0
2016-10-04T02:43:20.548Z,0
2016-10-04T02:44:20.235Z,0
2016-10-04T02:45:20.212Z,0
2016-10-04T02:46:20.510Z,0
2016-10-04T02:47:20.490Z,0
2016-10-04T02:48:20.785Z,0
2016-10-04T02:49:20.447Z,0
2016-10-04T02:50:20.425Z,0
2016-10-04T02:51:20.416Z,0
2016-10-04T02:52:20.397Z,0
2016-10-04T02:53:20.076Z,0
2016-10-04T02:54:20.372Z,0
2016-10-04T02:55:20.047Z,0
2016-10-04T02:56:20.324Z,0
2016-10-04T02:57:20.002Z,0
2016-10-04T02:58:19.696Z,0
2016-10-04T02:59:19.966Z,0
2016-10-04T03:00:19.662Z,0
2016-10-04T03:01:20.236Z,0
2016-10-04T03:02:20.222Z,0
2016-10-04T03:03:19.903Z,0
2016-10-04T03:04:20.187Z,0
2016-10-04T03:05:20.175Z,0
2016-10-04T03:06:20.166Z,0
2016-10-04T03:07:19.838Z,0
2016-10-04T03:08:20.135Z,0
2016-10-04T03:09:20.095Z,0
2016-10-04T03:10:20.084Z,0
2016-10-04T03:11:20.068Z,0
2016-10-04T03:12:20.043Z,0
2016-10-04T03:13:20.040Z,0
2016-10-04T03:14:20.000Z,0
2016-10-04T03:15:19.997Z,0
2016-10-04T03:16:19.976Z,0
2016-10-04T03:17:19.656Z,0
2016-10-04T03:18:19.943Z,0
2016-10-04T03:19:19.914Z,0
2016-10-04T03:20:19.913Z,0
2016-10-04T03:21:19.899Z,0
2016-10-04T03:22:19.567Z,0
2016-10-04T03:23:19.850Z,0
2016-10-04T03:24:19.838Z,0
2016-10-04T03:25:19.513Z,0
2016-10-04T03:26:19.804Z,0
2016-10-04T03:27:19.774Z,0
2016-10-04T03:28:19.770Z,0
2016-10-04T03:29:19.742Z,0
2016-10-04T03:30:19.427Z,0
2016-10-04T03:31:19.709Z,0
2016-10-04T03:32:19.698Z,0
2016-10-04T03:33:19.680Z,0
2016-10-04T03:34:19.657Z,0
2016-10-04T03:35:19.638Z,0
2016-10-04T03:36:19.627Z,0
2016-10-04T03:37:19.311Z,0
2016-10-04T03:38:19.585Z,0
2016-10-04T03:39:19.573Z,0
2016-10-04T03:40:19.557Z,0
2016-10-04T03:41:19.543Z,0
2016-10-04T03:42:18.924Z,0
2016-10-04T03:43:19.511Z,0
2016-10-04T03:44:19.190Z,0
2016-10-04T03:45:19.466Z,0
2016-10-04T03:46:19.156Z,0
2016-10-04T03:47:19.134Z,0
2016-10-04T03:48:19.420Z,0
2016-10-04T03:49:19.102Z,0
2016-10-04T03:50:19.383Z,0
2016-10-04T03:51:19.378Z,0
2016-10-04T03:52:19.346Z,0
2016-10-04T03:53:19.338Z,0
2016-10-04T03:54:19.309Z,0
2016-10-04T03:55:18.999Z,0
2016-10-04T03:56:19.274Z,0
2016-10-04T03:57:19.268Z,0
2016-10-04T03:58:19.267Z,0
2016-10-04T03:59:19.228Z,0
2016-10-04T04:00:19.225Z,0
2016-10-04T04:01:19.191Z,0
2016-10-04T04:02:18.574Z,0
2016-10-04T04:03:19.164Z,0
2016-10-04T04:04:19.138Z,0
2016-10-04T04:05:19.125Z,0
2016-10-04T04:06:18.803Z,0
2016-10-04T04:07:18.792Z,0
2016-10-04T04:08:19.074Z,0
2016-10-04T04:09:18.747Z,0
2016-10-04T04:10:18.738Z,0
2016-10-04T04:11:19.017Z,0
2016-10-04T04:12:19.001Z,0
2016-10-04T04:13:19.001Z,0
2016-10-04T04:14:18.967Z,0
2016-10-04T04:15:18.953Z,0
2016-10-04T04:16:18.932Z,0
2016-10-04T04:17:18.917Z,0
2016-10-04T04:18:18.601Z,0
2016-10-04T04:19:18.882Z,0
2016-10-04T04:20:18.872Z,0
2016-10-04T04:21:18.545Z,0
2016-10-04T04:22:18.838Z,0
2016-10-04T04:23:18.807Z,0
2016-10-04T04:24:18.800Z,0
2016-10-04T04:25:18.775Z,0
2016-10-04T04:26:18.763Z,0
2016-10-04T04:27:18.741Z,0
2016-10-04T04:28:18.729Z,0
2016-10-04T04:29:18.706Z,0
2016-10-04T04:30:18.694Z,0
2016-10-04T04:31:18.376Z,0
2016-10-04T04:32:18.653Z,0
2016-10-04T04:33:18.629Z,0
2016-10-04T04:34:18.632Z,0
2016-10-04T04:35:18.611Z,0
2016-10-04T04:36:18.583Z,0
2016-10-04T04:37:18.565Z,0
2016-10-04T04:38:18.551Z,0
2016-10-04T04:39:18.541Z,0
2016-10-04T04:40:18.219Z,0
2016-10-04T04:41:18.502Z,0
2016-10-04T04:42:18.481Z,0
2016-10-04T04:43:17.863Z,0
2016-10-04T04:44:18.451Z,0
2016-10-04T04:45:18.429Z,0
2016-10-04T04:46:18.408Z,0
2016-10-04T04:47:18.391Z,0
2016-10-04T04:48:18.085Z,0
2016-10-04T04:49:18.358Z,0
2016-10-04T04:50:18.345Z,0
2016-10-04T04:51:18.318Z,0
2016-10-04T04:52:18.005Z,0
2016-10-04T04:53:18.283Z,0
2016-10-04T04:54:18.286Z,0
2016-10-04T04:55:18.265Z,0
2016-10-04T04:56:18.236Z,0
2016-10-04T04:57:17.927Z,0
2016-10-04T04:58:18.199Z,0
2016-10-04T04:59:18.177Z,0
2016-10-04T05:00:18.180Z,0
2016-10-04T05:01:17.850Z,0
2016-10-04T05:02:18.132Z,0
2016-10-04T05:03:17.812Z,0
2016-10-04T05:04:17.800Z,0
2016-10-04T05:05:18.074Z,0
2016-10-04T05:06:18.061Z,0
2016-10-04T05:07:18.050Z,0
2016-10-04T05:08:18.049Z,0
2016-10-04T05:09:18.009Z,0
2016-10-04T05:10:17.698Z,0
2016-10-04T05:11:17.981Z,0
2016-10-04T05:12:17.971Z,0
2016-10-04T05:13:17.940Z,0
2016-10-04T05:14:17.625Z,0
2016-10-04T05:15:17.912Z,0
2016-10-04T05:16:17.891Z,0
2016-10-04T05:17:17.571Z,0
2016-10-04T05:18:17.548Z,0
2016-10-04T05:19:17.845Z,0
2016-10-04T05:20:17.517Z,0
2016-10-04T05:21:17.501Z,0
2016-10-04T05:22:17.795Z,0
2016-10-04T05:23:17.765Z,0
2016-10-04T05:24:17.458Z,0
2016-10-04T05:25:17.737Z,0
2016-10-04T05:26:17.719Z,0
2016-10-04T05:27:17.711Z,0
2016-10-04T05:28:17.385Z,0
2016-10-04T05:29:17.680Z,0
2016-10-04T05:30:17.348Z,0
2016-10-04T05:31:17.323Z,0
2016-10-04T05:32:17.311Z,0
2016-10-04T05:33:17.595Z,0
2016-10-04T05:34:17.273Z,0
2016-10-04T05:35:17.545Z,0
2016-10-04T05:36:17.541Z,0
2016-10-04T05:37:17.235Z,0
2016-10-04T05:38:17.505Z,0
2016-10-04T05:39:17.487Z,0
2016-10-04T05:40:16.871Z,0
2016-10-04T05:41:16.556Z,0
2016-10-04T05:42:17.138Z,0
2016-10-04T05:43:17.410Z,0
2016-10-04T05:44:17.397Z,0
2016-10-04T05:45:17.089Z,0
2016-10-04T05:46:17.066Z,0
2016-10-04T05:47:17.360Z,0
2016-10-04T05:48:16.922Z,0
2016-10-04T05:49:16.727Z,0
2016-10-04T05:50:17.001Z,0
2016-10-04T05:51:17.278Z,0
2016-10-04T05:52:17.279Z,0
2016-10-04T05:53:17.246Z,0
2016-10-04T05:54:16.625Z,0
2016-10-04T05:55:17.209Z,0
2016-10-04T05:56:17.192Z,0
2016-10-04T05:57:17.181Z,0
2016-10-04T05:58:17.158Z,0
2016-10-04T05:59:17.141Z,0
2016-10-04T06:00:17.117Z,0
2016-10-04T06:01:17.115Z,0
2016-10-04T06:02:17.095Z,0
2016-10-04T06:03:17.067Z,0
2016-10-04T06:04:16.750Z,0
2016-10-04T06:05:17.035Z,0
2016-10-04T06:06:17.015Z,0
2016-10-04T06:07:17.000Z,0
2016-10-04T06:08:16.379Z,0
2016-10-04T06:09:16.663Z,0
2016-10-04T06:10:16.953Z,0
2016-10-04T06:11:16.935Z,0
2016-10-04T06:12:16.613Z,0
2016-10-04T06:13:16.905Z,0
2016-10-04T06:14:16.579Z,0
2016-10-04T06:15:16.850Z,0
2016-10-04T06:16:16.845Z,0
2016-10-04T06:17:16.826Z,0
2016-10-04T06:18:16.529Z,0
2016-10-04T06:19:16.797Z,0
2016-10-04T06:20:16.790Z,0
2016-10-04T06:21:16.765Z,0
2016-10-04T06:22:16.452Z,0
2016-10-04T06:23:16.726Z,0
2016-10-04T06:24:16.709Z,0
2016-10-04T06:25:16.684Z,0
2016-10-04T06:26:16.672Z,0
2016-10-04T06:27:16.667Z,0
2016-10-04T06:28:16.631Z,0
2016-10-04T06:29:16.625Z,0
2016-10-04T06:30:16.325Z,0
2016-10-04T06:31:16.275Z,0
2016-10-04T06:32:16.579Z,0
2016-10-04T06:33:16.555Z,0
2016-10-04T06:34:16.224Z,0
2016-10-04T06:35:16.227Z,0
2016-10-04T06:36:16.503Z,0
2016-10-04T06:37:16.481Z,0
2016-10-04T06:38:16.164Z,0
2016-10-04T06:39:16.459Z,0
2016-10-04T06:40:16.434Z,0
2016-10-04T06:41:16.415Z,0
2016-10-04T06:42:16.395Z,0
2016-10-04T06:43:16.382Z,0
2016-10-04T06:44:16.351Z,0
2016-10-04T06:45:16.035Z,0
2016-10-04T06:46:16.323Z,4
2016-10-04T06:47:16.004Z,4
2016-10-04T06:48:16.296Z,4
2016-10-04T06:49:16.275Z,0
2016-10-04T06:50:15.945Z,0
2016-10-04T06:51:16.244Z,4
2016-10-04T06:52:16.227Z,4
2016-10-04T06:53:16.203Z,4
2016-10-04T06:54:16.190Z,4
2016-10-04T06:55:15.556Z,4
2016-10-04T06:56:16.155Z,4
2016-10-04T06:57:15.525Z,4
2016-10-04T06:58:15.820Z,8
2016-10-04T06:59:16.089Z,4
2016-10-04T07:00:16.090Z,8
2016-10-04T07:01:15.772Z,8
2016-10-04T07:02:16.259Z,8
2016-10-04T07:03:16.027Z,8
2016-10-04T07:04:16.015Z,8
2016-10-04T07:05:15.691Z,8
2016-10-04T07:06:15.679Z,8
2016-10-04T07:07:15.658Z,12
2016-10-04T07:08:15.635Z,12
2016-10-04T07:09:15.936Z,12
2016-10-04T07:10:15.905Z,12
2016-10-04T07:11:15.291Z,12
2016-10-04T07:12:15.580Z,12
2016-10-04T07:13:15.859Z,12
2016-10-04T07:14:15.843Z,12
2016-10-04T07:15:15.527Z,12
2016-10-04T07:16:15.497Z,12
2016-10-04T07:17:15.785Z,16
2016-10-04T07:18:15.768Z,12
2016-10-04T07:19:15.747Z,16
2016-10-04T07:20:15.726Z,12
2016-10-04T07:21:15.719Z,12
2016-10-04T07:22:15.696Z,12
2016-10-04T07:23:15.378Z,12
2016-10-04T07:24:15.664Z,12
2016-10-04T07:25:15.046Z,12
2016-10-04T07:26:15.331Z,12
2016-10-04T07:27:15.614Z,12
2016-10-04T07:28:15.594Z,12
2016-10-04T07:29:15.576Z,12
2016-10-04T07:30:15.561Z,12
2016-10-04T07:31:15.248Z,12
2016-10-04T07:32:15.521Z,12
2016-10-04T07:33:15.526Z,12
2016-10-04T07:34:15.486Z,12
2016-10-04T07:35:15.169Z,12
2016-10-04T07:36:15.158Z,12
2016-10-04T07:37:15.197Z,12
2016-10-04T07:38:15.424Z,12
2016-10-04T07:39:15.097Z,12
2016-10-04T07:40:15.396Z,12
2016-10-04T07:41:15.069Z,12
2016-10-04T07:42:15.355Z,12
2016-10-04T07:43:15.342Z,12
2016-10-04T07:44:15.013Z,12
2016-10-04T07:45:14.997Z,12
2016-10-04T07:46:14.980Z,12
2016-10-04T07:47:14.971Z,12
2016-10-04T07:48:15.266Z,12
2016-10-04T07:49:15.238Z,12
2016-10-04T07:50:15.215Z,12
2016-10-04T07:51:14.913Z,12
2016-10-04T07:52:14.580Z,12
2016-10-04T07:53:14.860Z,12
2016-10-04T07:54:15.145Z,12
2016-10-04T07:55:14.823Z,12
2016-10-04T07:56:14.818Z,12
2016-10-04T07:57:15.090Z,12
2016-10-04T07:58:15.079Z,12
2016-10-04T07:59:15.059Z,16
2016-10-04T08:00:14.736Z,16
2016-10-04T08:01:14.423Z,12
2016-10-04T08:02:15.010Z,16
2016-10-04T08:03:14.991Z,12
2016-10-04T08:04:14.975Z,12
2016-10-04T08:05:14.661Z,16
2016-10-04T08:06:14.633Z,16
2016-10-04T08:07:14.931Z,12
2016-10-04T08:08:14.914Z,16
2016-10-04T08:09:14.585Z,16
2016-10-04T08:10:14.275Z,16
2016-10-04T08:11:14.557Z,0
2016-10-04T08:12:14.864Z,4
2016-10-04T08:13:14.812Z,0
2016-10-04T08:14:14.496Z,0
2016-10-04T08:15:14.512Z,0
2016-10-04T08:16:14.503Z,4
2016-10-04T08:17:14.176Z,0
2016-10-04T08:18:14.749Z,4
2016-10-04T08:19:14.424Z,0
2016-10-04T08:20:14.393Z,0
2016-10-04T08:21:14.692Z,0
2016-10-04T08:22:14.386Z,4
2016-10-04T08:23:14.376Z,0
2016-10-04T08:24:14.629Z,0
2016-10-04T08:25:14.678Z,4
2016-10-04T08:26:14.304Z,4
2016-10-04T08:27:14.597Z,4
2016-10-04T08:28:14.569Z,4
2016-10-04T08:29:14.560Z,0
2016-10-04T08:30:14.224Z,4
2016-10-04T08:31:14.225Z,4
2016-10-04T08:32:14.208Z,4
2016-10-04T08:33:14.507Z,4
2016-10-04T08:34:14.503Z,0
2016-10-04T08:35:14.159Z,4
2016-10-04T08:36:14.128Z,0
2016-10-04T08:37:14.135Z,4
2016-10-04T08:38:14.086Z,0
2016-10-04T08:39:14.082Z,4
2016-10-04T08:40:14.373Z,4
2016-10-04T08:41:13.760Z,4
2016-10-04T08:42:14.324Z,4
2016-10-04T08:43:14.294Z,0
2016-10-04T08:44:14.292Z,4
2016-10-04T08:45:13.965Z,0
2016-10-04T08:46:14.242Z,0
2016-10-04T08:47:14.241Z,4
2016-10-04T08:48:14.212Z,4
2016-10-04T08:49:13.595Z,4
2016-10-04T08:50:14.181Z,4
2016-10-04T08:51:14.168Z,4
2016-10-04T08:52:14.143Z,0
2016-10-04T08:53:14.121Z,0
2016-10-04T08:54:13.808Z,0
2016-10-04T08:55:13.793Z,0
2016-10-04T08:56:14.086Z,4
2016-10-04T08:57:14.068Z,4
2016-10-04T08:58:13.737Z,4
2016-10-04T08:59:13.724Z,0
2016-10-04T09:00:13.703Z,0
2016-10-04T09:01:13.688Z,0
2016-10-04T09:02:13.963Z,0
2016-10-04T09:03:13.957Z,0
2016-10-04T09:04:13.932Z,0
2016-10-04T09:05:13.617Z,0
2016-10-04T09:06:13.594Z,0
2016-10-04T09:07:13.886Z,4
2016-10-04T09:08:13.859Z,0
2016-10-04T09:09:13.536Z,4
2016-10-04T09:10:13.861Z,0
2016-10-04T09:11:13.816Z,0
2016-10-04T09:12:13.790Z,0
2016-10-04T09:13:13.779Z,0
2016-10-04T09:14:13.758Z,4
2016-10-04T09:15:13.432Z,4
2016-10-04T09:16:13.413Z,0
2016-10-04T09:17:13.401Z,4
2016-10-04T09:18:13.373Z,0
2016-10-04T09:19:13.362Z,4
2016-10-04T09:20:13.650Z,4
2016-10-04T09:21:13.329Z,4
2016-10-04T09:22:13.622Z,4
2016-10-04T09:23:13.604Z,0
2016-10-04T09:24:13.579Z,0
2016-10-04T09:25:13.278Z,4
2016-10-04T09:26:13.264Z,0
2016-10-04T09:27:13.534Z,4
2016-10-04T09:28:13.519Z,0
2016-10-04T09:29:13.194Z,4
2016-10-04T09:30:13.479Z,0
2016-10-04T09:31:13.454Z,0
2016-10-04T09:32:13.137Z,4
2016-10-04T09:33:13.429Z,4
2016-10-04T09:34:13.402Z,4
2016-10-04T09:35:13.085Z,4
2016-10-04T09:36:13.370Z,4
2016-10-04T09:37:13.348Z,4
2016-10-04T09:38:13.336Z,4
2016-10-04T09:39:13.324Z,8
2016-10-04T09:40:13.005Z,4
2016-10-04T09:41:13.283Z,4
2016-10-04T09:42:13.262Z,4
2016-10-04T09:43:12.948Z,8
2016-10-04T09:44:12.627Z,4
2016-10-04T09:45:13.223Z,4
2016-10-04T09:46:13.200Z,4
2016-10-04T09:47:13.186Z,4
2016-10-04T09:48:12.851Z,4
2016-10-04T09:49:12.982Z,4
2016-10-04T09:50:12.962Z,4
2016-10-04T09:51:13.260Z,4
2016-10-04T09:52:13.233Z,4
2016-10-04T09:53:13.217Z,0
2016-10-04T09:54:12.878Z,4
2016-10-04T09:55:13.177Z,4
2016-10-04T09:56:13.160Z,0
2016-10-04T09:57:13.155Z,0
2016-10-04T09:58:13.129Z,4
2016-10-04T09:59:13.120Z,4
2016-10-04T10:00:13.089Z,4
2016-10-04T10:01:13.068Z,8
2016-10-04T10:02:13.062Z,4
2016-10-04T10:03:12.723Z,4
2016-10-04T10:04:13.023Z,4
2016-10-04T10:05:13.006Z,4
2016-10-04T10:06:12.982Z,8
2016-10-04T10:07:12.979Z,4
2016-10-04T10:08:12.941Z,4
2016-10-04T10:09:12.938Z,4
2016-10-04T10:10:12.919Z,4
2016-10-04T10:11:12.901Z,4
2016-10-04T10:12:12.878Z,4
2016-10-04T10:13:12.555Z,4
2016-10-04T10:14:12.858Z,4
2016-10-04T10:15:12.513Z,4
2016-10-04T10:16:12.192Z,0
2016-10-04T10:17:12.795Z,0
2016-10-04T10:18:12.471Z,4
2016-10-04T10:19:12.769Z,0
2016-10-04T10:20:12.451Z,4
2016-10-04T10:21:12.731Z,4
2016-10-04T10:22:12.712Z,8
2016-10-04T10:23:12.686Z,8
2016-10-04T10:24:12.668Z,8
2016-10-04T10:25:12.355Z,8
2016-10-04T10:26:12.324Z,4
2016-10-04T10:27:12.318Z,4
2016-10-04T10:28:12.291Z,8
2016-10-04T10:29:12.273Z,4
2016-10-04T10:30:11.949Z,4
2016-10-04T10:31:11.937Z,8
2016-10-04T10:32:12.532Z,4
2016-10-04T10:33:11.886Z,4
2016-10-04T10:34:12.510Z,4
2016-10-04T10:35:12.489Z,4
2016-10-04T10:36:12.462Z,4
2016-10-04T10:37:12.450Z,4
2016-10-04T10:38:12.429Z,4
2016-10-04T10:39:12.413Z,4
2016-10-04T10:40:12.083Z,12
2016-10-04T10:41:12.071Z,8
2016-10-04T10:42:12.387Z,4
2016-10-04T10:43:12.355Z,4
2016-10-04T10:44:12.012Z,4
2016-10-04T10:45:12.315Z,4
2016-10-04T10:46:11.990Z,4
2016-10-04T10:47:12.286Z,4
2016-10-04T10:48:12.259Z,8
2016-10-04T10:49:12.253Z,4
2016-10-04T10:50:12.229Z,8
2016-10-04T10:51:12.210Z,0
2016-10-04T10:52:11.578Z,4
2016-10-04T10:53:12.175Z,4
2016-10-04T10:54:12.166Z,4
2016-10-04T10:55:12.141Z,4
2016-10-04T10:56:12.111Z,4
2016-10-04T10:57:11.788Z,4
2016-10-04T10:58:12.111Z,4
2016-10-04T10:59:12.079Z,4
2016-10-04T11:00:11.426Z,4
2016-10-04T11:01:12.037Z,4
2016-10-04T11:02:12.022Z,4
2016-10-04T11:03:11.369Z,4
2016-10-04T11:04:11.985Z,4
2016-10-04T11:05:11.960Z,4
2016-10-04T11:06:11.946Z,4
2016-10-04T11:07:11.935Z,4
2016-10-04T11:08:11.915Z,0
2016-10-04T11:09:11.901Z,4
2016-10-04T11:10:11.879Z,4
2016-10-04T11:11:11.870Z,4
2016-10-04T11:12:11.865Z,4
2016-10-04T11:13:11.509Z,4
2016-10-04T11:14:11.810Z,4
2016-10-04T11:15:11.477Z,4
2016-10-04T11:16:11.484Z,4
2016-10-04T11:17:11.755Z,4
2016-10-04T11:18:11.113Z,8
2016-10-04T11:19:11.727Z,4
2016-10-04T11:20:11.712Z,4
2016-10-04T11:21:11.369Z,4
2016-10-04T11:22:11.667Z,4
2016-10-04T11:23:11.655Z,4
2016-10-04T11:24:11.012Z,4
2016-10-04T11:25:11.311Z,4
2016-10-04T11:26:11.612Z,4
2016-10-04T11:27:11.591Z,4
2016-10-04T11:28:11.245Z,4
2016-10-04T11:29:11.243Z,0
2016-10-04T11:30:11.533Z,0
2016-10-04T11:31:11.208Z,4
2016-10-04T11:32:11.182Z,4
2016-10-04T11:33:11.490Z,4
2016-10-04T11:34:11.145Z,4
2016-10-04T11:35:11.132Z,0
2016-10-04T11:36:11.120Z,4
2016-10-04T11:37:11.414Z,4
2016-10-04T11:38:11.396Z,4
2016-10-04T11:39:11.388Z,0
2016-10-04T11:40:11.042Z,4
2016-10-04T11:41:10.714Z,4
2016-10-04T11:42:11.319Z,0
2016-10-04T11:43:11.306Z,0
2016-10-04T11:44:11.303Z,0
2016-10-04T11:45:10.968Z,0
2016-10-04T11:46:11.251Z,0
2016-10-04T11:47:11.255Z,4
2016-10-04T11:48:11.223Z,4
2016-10-04T11:49:10.886Z,4
2016-10-04T11:50:11.191Z,4
2016-10-04T11:51:11.167Z,0
2016-10-04T11:52:10.844Z,0
2016-10-04T11:53:11.127Z,0
2016-10-04T11:54:11.112Z,4
2016-10-04T11:55:10.780Z,0
2016-10-04T11:56:11.083Z,8
2016-10-04T11:57:10.747Z,8
2016-10-04T11:58:10.729Z,8
2016-10-04T11:59:11.022Z,4
2016-10-04T12:00:11.006Z,4
2016-10-04T12:01:10.995Z,4
2016-10-04T12:02:10.666Z,4
2016-10-04T12:03:10.657Z,4
2016-10-04T12:04:10.949Z,4
2016-10-04T12:05:10.610Z,4
2016-10-04T12:06:10.913Z,4
2016-10-04T12:07:10.574Z,4
2016-10-04T12:08:10.554Z,4
2016-10-04T12:09:10.863Z,8
2016-10-04T12:10:10.531Z,4
2016-10-04T12:11:10.817Z,4
2016-10-04T12:12:10.814Z,8
2016-10-04T12:13:10.791Z,4
2016-10-04T12:14:10.768Z,4
2016-10-04T12:15:10.755Z,4
2016-10-04T12:16:10.731Z,4
2016-10-04T12:17:10.721Z,4
2016-10-04T12:18:10.704Z,4
2016-10-04T12:19:10.698Z,8
2016-10-04T12:20:10.679Z,4
2016-10-04T12:21:10.333Z,4
2016-10-04T12:22:10.639Z,4
2016-10-04T12:23:10.610Z,4
2016-10-04T12:24:10.605Z,8
2016-10-04T12:25:10.577Z,4
2016-10-04T12:26:10.250Z,4
2016-10-04T12:27:10.554Z,8
2016-10-04T12:28:09.909Z,8
2016-10-04T12:29:10.196Z,8
2016-10-04T12:30:09.872Z,8
2016-10-04T12:31:10.485Z,12
2016-10-04T12:32:09.843Z,16
2016-10-04T12:33:10.134Z,16
2016-10-04T12:34:10.722Z,12
2016-10-04T12:35:10.115Z,12
2016-10-04T12:36:10.081Z,8
2016-10-04T12:37:10.378Z,4
2016-10-04T12:38:10.041Z,8
2016-10-04T12:39:10.059Z,4
2016-10-04T12:40:10.335Z,4
2016-10-04T12:41:10.303Z,8
2016-10-04T12:42:09.977Z,4
2016-10-04T12:43:09.958Z,4
2016-10-04T12:44:10.265Z,4
2016-10-04T12:45:10.240Z,4
2016-10-04T12:46:10.225Z,4
2016-10-04T12:47:09.890Z,4
2016-10-04T12:48:09.568Z,4
2016-10-04T12:49:10.171Z,4
2016-10-04T12:50:10.164Z,4
2016-10-04T12:51:10.136Z,8
2016-10-04T12:52:09.494Z,8
2016-10-04T12:53:09.792Z,4
2016-10-04T12:54:10.099Z,12
2016-10-04T12:55:09.753Z,8
2016-10-04T12:56:10.061Z,8
2016-10-04T12:57:10.036Z,8
2016-10-04T12:58:09.705Z,4
2016-10-04T12:59:09.701Z,12
2016-10-04T13:00:09.670Z,12
2016-10-04T13:01:09.967Z,16
2016-10-04T13:02:09.943Z,20
2016-10-04T13:03:09.934Z,24
2016-10-04T13:04:09.921Z,28
2016-10-04T13:05:09.574Z,32
2016-10-04T13:06:09.881Z,36
2016-10-04T13:07:09.874Z,36
2016-10-04T13:08:09.844Z,48
2016-10-04T13:09:09.848Z,52
2016-10-04T13:10:09.808Z,52
2016-10-04T13:11:09.799Z,48
2016-10-04T13:12:09.454Z,56
2016-10-04T13:13:09.767Z,56
2016-10-04T13:14:09.743Z,64
2016-10-04T13:15:09.718Z,72
2016-10-04T13:16:09.394Z,76
2016-10-04T13:17:09.694Z,80
2016-10-04T13:18:09.686Z,80
2016-10-04T13:19:09.673Z,84
2016-10-04T13:20:09.904Z,84
2016-10-04T13:21:09.630Z,84
2016-10-04T13:22:08.976Z,80
2016-10-04T13:23:09.594Z,84
2016-10-04T13:24:09.264Z,80
2016-10-04T13:25:09.250Z,80
2016-10-04T13:26:09.546Z,84
2016-10-04T13:27:09.529Z,80
2016-10-04T13:28:09.519Z,80
2016-10-04T13:29:09.499Z,80
2016-10-04T13:30:09.167Z,84
2016-10-04T13:31:09.467Z,80
2016-10-04T13:32:09.446Z,80
2016-10-04T13:33:09.109Z,80
2016-10-04T13:34:08.778Z,80
2016-10-04T13:35:09.398Z,80
2016-10-04T13:36:09.060Z,80
2016-10-04T13:37:09.043Z,80
2016-10-04T13:38:08.715Z,80
2016-10-04T13:39:09.343Z,80
2016-10-04T13:40:09.329Z,40
2016-10-04T13:41:09.302Z,68
2016-10-04T13:42:08.969Z,76
2016-10-04T13:43:08.958Z,80
2016-10-04T13:44:09.278Z,32
2016-10-04T13:45:08.923Z,4
2016-10-04T13:46:09.214Z,72
2016-10-04T13:47:08.888Z,64
2016-10-04T13:48:09.183Z,12
2016-10-04T13:49:08.863Z,76
2016-10-04T13:50:08.521Z,84
2016-10-04T13:51:08.832Z,12
2016-10-04T13:52:09.127Z,8
2016-10-04T13:53:08.465Z,12
2016-10-04T13:54:09.092Z,80
2016-10-04T13:55:09.076Z,8
2016-10-04T13:56:09.060Z,44
2016-10-04T13:57:09.047Z,4
2016-10-04T13:58:09.019Z,72
2016-10-04T13:59:08.380Z,68
2016-10-04T14:00:09.231Z,68
2016-10-04T14:01:08.352Z,64
2016-10-04T14:02:08.647Z,60
2016-10-04T14:03:08.945Z,60
2016-10-04T14:04:08.940Z,60
2016-10-04T14:05:08.908Z,60
2016-10-04T14:06:08.584Z,56
2016-10-04T14:07:08.569Z,28
2016-10-04T14:08:08.858Z,8
2016-10-04T14:09:08.533Z,28
2016-10-04T14:10:08.192Z,48
2016-10-04T14:11:08.188Z,48
2016-10-04T14:12:08.491Z,28
2016-10-04T14:13:08.468Z,24
2016-10-04T14:14:08.133Z,16
2016-10-04T14:15:08.749Z,4
2016-10-04T14:16:08.415Z,0
2016-10-04T14:17:08.737Z,4
2016-10-04T14:18:08.692Z,4
2016-10-04T14:19:08.371Z,4
2016-10-04T14:20:08.661Z,4
2016-10-04T14:21:08.648Z,0
2016-10-04T14:22:08.003Z,20
2016-10-04T14:23:08.297Z,24
2016-10-04T14:24:08.286Z,24
2016-10-04T14:25:08.263Z,24
2016-10-04T14:26:08.589Z,20
2016-10-04T14:27:08.235Z,20
2016-10-04T14:28:08.223Z,20
2016-10-04T14:29:08.222Z,20
2016-10-04T14:30:08.497Z,20
2016-10-04T14:31:08.489Z,16
2016-10-04T14:32:08.495Z,16
2016-10-04T14:33:08.134Z,12
2016-10-04T14:34:08.456Z,4
2016-10-04T14:35:08.115Z,8
2016-10-04T14:36:08.095Z,8
2016-10-04T14:37:08.387Z,4
2016-10-04T14:38:08.371Z,4
2016-10-04T14:39:08.040Z,4
2016-10-04T14:40:08.343Z,0
2016-10-04T14:41:08.327Z,4